sensor_id;sensor_type;location;lat;lon;timestamp;P1;durP1;ratioP1;P2;durP2;ratioP2
53411;SDS011;39307;52.870;13.660;2023-08-06T00:00:28;7.03;;;3.80;;
53411;SDS011;39307;52.870;13.660;2023-08-06T00:02:54;8.27;;;3.42;;
53411;SDS011;39307;52.870;13.660;2023-08-06T00:05:20;9.18;;;3.60;;
53411;SDS011;39307;52.870;13.660;2023-08-06T00:07:47;9.00;;;3.50;;
53411;SDS011;39307;52.870;13.660;2023-08-06T00:10:14;6.97;;;3.50;;
53411;SDS011;39307;52.870;13.660;2023-08-06T00:12:40;7.45;;;3.75;;
53411;SDS011;39307;52.870;13.660;2023-08-06T00:15:07;8.57;;;3.73;;
53411;SDS011;39307;52.870;13.660;2023-08-06T00:17:34;7.57;;;3.70;;
53411;SDS011;39307;52.870;13.660;2023-08-06T00:20:00;6.50;;;3.90;;
53411;SDS011;39307;52.870;13.660;2023-08-06T00:22:28;7.38;;;3.58;;
53411;SDS011;39307;52.870;13.660;2023-08-06T00:24:54;7.82;;;3.83;;
53411;SDS011;39307;52.870;13.660;2023-08-06T00:27:20;7.47;;;3.70;;
53411;SDS011;39307;52.870;13.660;2023-08-06T00:29:46;7.95;;;3.83;;
53411;SDS011;39307;52.870;13.660;2023-08-06T00:32:12;8.88;;;4.00;;
53411;SDS011;39307;52.870;13.660;2023-08-06T00:34:39;8.18;;;3.72;;
53411;SDS011;39307;52.870;13.660;2023-08-06T00:37:05;6.40;;;3.78;;
53411;SDS011;39307;52.870;13.660;2023-08-06T00:39:31;8.33;;;4.10;;
53411;SDS011;39307;52.870;13.660;2023-08-06T00:41:57;8.00;;;3.67;;
53411;SDS011;39307;52.870;13.660;2023-08-06T00:44:23;7.82;;;3.95;;
53411;SDS011;39307;52.870;13.660;2023-08-06T00:46:50;7.27;;;3.83;;
53411;SDS011;39307;52.870;13.660;2023-08-06T00:49:16;6.68;;;3.67;;
53411;SDS011;39307;52.870;13.660;2023-08-06T00:51:42;8.65;;;4.00;;
53411;SDS011;39307;52.870;13.660;2023-08-06T00:54:09;6.40;;;3.80;;
53411;SDS011;39307;52.870;13.660;2023-08-06T00:56:35;8.43;;;4.00;;
53411;SDS011;39307;52.870;13.660;2023-08-06T00:59:06;7.13;;;4.22;;
53411;SDS011;39307;52.870;13.660;2023-08-06T01:01:32;8.40;;;3.88;;
53411;SDS011;39307;52.870;13.660;2023-08-06T01:03:59;8.48;;;4.25;;
53411;SDS011;39307;52.870;13.660;2023-08-06T01:06:39;8.30;;;3.90;;
53411;SDS011;39307;52.870;13.660;2023-08-06T01:09:27;7.07;;;4.40;;
53411;SDS011;39307;52.870;13.660;2023-08-06T01:15:11;10.15;;;4.45;;
53411;SDS011;39307;52.870;13.660;2023-08-06T01:17:39;8.20;;;4.45;;
53411;SDS011;39307;52.870;13.660;2023-08-06T01:20:06;10.23;;;4.45;;
53411;SDS011;39307;52.870;13.660;2023-08-06T01:22:33;7.80;;;3.97;;
53411;SDS011;39307;52.870;13.660;2023-08-06T01:24:59;8.27;;;4.20;;
53411;SDS011;39307;52.870;13.660;2023-08-06T01:30:28;8.03;;;3.97;;
53411;SDS011;39307;52.870;13.660;2023-08-06T01:32:58;7.75;;;4.60;;
53411;SDS011;39307;52.870;13.660;2023-08-06T01:35:26;6.90;;;4.10;;
53411;SDS011;39307;52.870;13.660;2023-08-06T01:37:54;7.90;;;4.20;;
53411;SDS011;39307;52.870;13.660;2023-08-06T01:40:20;7.43;;;4.13;;
53411;SDS011;39307;52.870;13.660;2023-08-06T01:42:46;7.80;;;4.50;;
53411;SDS011;39307;52.870;13.660;2023-08-06T01:45:13;7.67;;;4.30;;
53411;SDS011;39307;52.870;13.660;2023-08-06T01:47:39;7.28;;;4.32;;
53411;SDS011;39307;52.870;13.660;2023-08-06T01:50:06;8.27;;;4.53;;
53411;SDS011;39307;52.870;13.660;2023-08-06T01:52:32;8.50;;;4.30;;
53411;SDS011;39307;52.870;13.660;2023-08-06T01:54:58;8.02;;;5.22;;
53411;SDS011;39307;52.870;13.660;2023-08-06T01:57:25;7.82;;;4.78;;
53411;SDS011;39307;52.870;13.660;2023-08-06T01:59:51;7.68;;;4.93;;
53411;SDS011;39307;52.870;13.660;2023-08-06T02:02:17;7.93;;;5.07;;
53411;SDS011;39307;52.870;13.660;2023-08-06T02:04:43;7.87;;;4.87;;
53411;SDS011;39307;52.870;13.660;2023-08-06T02:07:10;9.00;;;5.30;;
53411;SDS011;39307;52.870;13.660;2023-08-06T02:09:36;7.75;;;5.28;;
53411;SDS011;39307;52.870;13.660;2023-08-06T02:12:02;8.80;;;5.65;;
53411;SDS011;39307;52.870;13.660;2023-08-06T02:14:29;8.63;;;5.80;;
53411;SDS011;39307;52.870;13.660;2023-08-06T02:16:55;8.25;;;5.57;;
53411;SDS011;39307;52.870;13.660;2023-08-06T02:19:21;9.57;;;5.85;;
53411;SDS011;39307;52.870;13.660;2023-08-06T02:21:47;8.02;;;5.57;;
53411;SDS011;39307;52.870;13.660;2023-08-06T02:24:14;7.40;;;5.85;;
53411;SDS011;39307;52.870;13.660;2023-08-06T02:26:40;9.23;;;5.93;;
53411;SDS011;39307;52.870;13.660;2023-08-06T02:29:06;8.85;;;6.30;;
53411;SDS011;39307;52.870;13.660;2023-08-06T02:31:33;8.25;;;5.90;;
53411;SDS011;39307;52.870;13.660;2023-08-06T02:33:59;9.98;;;6.40;;
53411;SDS011;39307;52.870;13.660;2023-08-06T02:36:25;10.57;;;6.72;;
53411;SDS011;39307;52.870;13.660;2023-08-06T02:38:51;9.35;;;6.20;;
53411;SDS011;39307;52.870;13.660;2023-08-06T02:41:17;9.82;;;7.13;;
53411;SDS011;39307;52.870;13.660;2023-08-06T02:43:44;10.35;;;6.63;;
53411;SDS011;39307;52.870;13.660;2023-08-06T02:46:10;10.40;;;7.10;;
53411;SDS011;39307;52.870;13.660;2023-08-06T02:48:36;10.30;;;6.88;;
53411;SDS011;39307;52.870;13.660;2023-08-06T02:51:02;9.98;;;7.38;;
53411;SDS011;39307;52.870;13.660;2023-08-06T02:53:28;9.60;;;7.07;;
53411;SDS011;39307;52.870;13.660;2023-08-06T02:55:55;9.57;;;7.22;;
53411;SDS011;39307;52.870;13.660;2023-08-06T02:58:21;9.70;;;7.55;;
53411;SDS011;39307;52.870;13.660;2023-08-06T03:00:58;13.75;;;7.13;;
53411;SDS011;39307;52.870;13.660;2023-08-06T03:03:30;11.23;;;7.87;;
53411;SDS011;39307;52.870;13.660;2023-08-06T03:05:57;10.35;;;7.43;;
53411;SDS011;39307;52.870;13.660;2023-08-06T03:08:23;9.55;;;7.70;;
53411;SDS011;39307;52.870;13.660;2023-08-06T03:10:49;9.93;;;7.70;;
53411;SDS011;39307;52.870;13.660;2023-08-06T03:13:16;9.77;;;7.57;;
53411;SDS011;39307;52.870;13.660;2023-08-06T03:15:43;11.07;;;7.70;;
53411;SDS011;39307;52.870;13.660;2023-08-06T03:18:18;12.00;;;8.57;;
53411;SDS011;39307;52.870;13.660;2023-08-06T03:20:44;10.57;;;8.60;;
53411;SDS011;39307;52.870;13.660;2023-08-06T03:23:10;10.53;;;8.53;;
53411;SDS011;39307;52.870;13.660;2023-08-06T03:25:37;11.05;;;8.45;;
53411;SDS011;39307;52.870;13.660;2023-08-06T03:28:03;10.25;;;7.90;;
53411;SDS011;39307;52.870;13.660;2023-08-06T03:30:29;13.45;;;8.73;;
53411;SDS011;39307;52.870;13.660;2023-08-06T03:32:55;10.68;;;8.40;;
53411;SDS011;39307;52.870;13.660;2023-08-06T03:35:22;10.73;;;8.48;;
53411;SDS011;39307;52.870;13.660;2023-08-06T03:37:48;12.38;;;8.50;;
53411;SDS011;39307;52.870;13.660;2023-08-06T03:40:14;11.57;;;8.73;;
53411;SDS011;39307;52.870;13.660;2023-08-06T03:42:41;9.85;;;8.38;;
53411;SDS011;39307;52.870;13.660;2023-08-06T03:45:07;12.02;;;8.68;;
53411;SDS011;39307;52.870;13.660;2023-08-06T03:47:33;11.23;;;8.60;;
53411;SDS011;39307;52.870;13.660;2023-08-06T03:50:00;11.90;;;8.73;;
53411;SDS011;39307;52.870;13.660;2023-08-06T03:52:26;10.60;;;8.00;;
53411;SDS011;39307;52.870;13.660;2023-08-06T03:54:52;12.30;;;8.40;;
53411;SDS011;39307;52.870;13.660;2023-08-06T03:57:18;10.73;;;7.80;;
53411;SDS011;39307;52.870;13.660;2023-08-06T03:59:45;10.80;;;8.07;;
53411;SDS011;39307;52.870;13.660;2023-08-06T04:02:11;10.15;;;8.13;;
53411;SDS011;39307;52.870;13.660;2023-08-06T04:04:37;11.25;;;8.07;;
53411;SDS011;39307;52.870;13.660;2023-08-06T04:07:03;10.10;;;7.45;;
53411;SDS011;39307;52.870;13.660;2023-08-06T04:09:30;10.25;;;7.97;;
53411;SDS011;39307;52.870;13.660;2023-08-06T04:11:56;10.25;;;8.02;;
53411;SDS011;39307;52.870;13.660;2023-08-06T04:14:22;10.20;;;7.57;;
53411;SDS011;39307;52.870;13.660;2023-08-06T04:16:48;10.30;;;7.40;;
53411;SDS011;39307;52.870;13.660;2023-08-06T04:19:15;10.00;;;7.70;;
53411;SDS011;39307;52.870;13.660;2023-08-06T04:21:41;9.75;;;7.28;;
53411;SDS011;39307;52.870;13.660;2023-08-06T04:24:07;10.43;;;7.78;;
53411;SDS011;39307;52.870;13.660;2023-08-06T04:26:33;10.43;;;7.45;;
53411;SDS011;39307;52.870;13.660;2023-08-06T04:28:59;10.35;;;7.60;;
53411;SDS011;39307;52.870;13.660;2023-08-06T04:31:26;11.00;;;7.53;;
53411;SDS011;39307;52.870;13.660;2023-08-06T04:33:52;10.63;;;7.45;;
53411;SDS011;39307;52.870;13.660;2023-08-06T04:36:18;10.20;;;7.50;;
53411;SDS011;39307;52.870;13.660;2023-08-06T04:38:44;9.27;;;7.75;;
53411;SDS011;39307;52.870;13.660;2023-08-06T04:41:10;10.93;;;8.20;;
53411;SDS011;39307;52.870;13.660;2023-08-06T04:43:37;10.10;;;7.88;;
53411;SDS011;39307;52.870;13.660;2023-08-06T04:46:03;10.97;;;7.37;;
53411;SDS011;39307;52.870;13.660;2023-08-06T04:48:29;9.70;;;7.77;;
53411;SDS011;39307;52.870;13.660;2023-08-06T04:50:55;10.63;;;7.63;;
53411;SDS011;39307;52.870;13.660;2023-08-06T04:53:21;11.97;;;8.50;;
53411;SDS011;39307;52.870;13.660;2023-08-06T04:55:48;11.73;;;9.13;;
53411;SDS011;39307;52.870;13.660;2023-08-06T04:58:14;10.77;;;8.23;;
53411;SDS011;39307;52.870;13.660;2023-08-06T05:00:40;10.50;;;8.18;;
53411;SDS011;39307;52.870;13.660;2023-08-06T05:03:07;11.27;;;8.90;;
53411;SDS011;39307;52.870;13.660;2023-08-06T05:05:33;11.88;;;8.40;;
53411;SDS011;39307;52.870;13.660;2023-08-06T05:07:59;10.95;;;8.93;;
53411;SDS011;39307;52.870;13.660;2023-08-06T05:10:25;10.63;;;8.15;;
53411;SDS011;39307;52.870;13.660;2023-08-06T05:12:52;12.40;;;9.38;;
53411;SDS011;39307;52.870;13.660;2023-08-06T05:15:21;12.00;;;8.93;;
53411;SDS011;39307;52.870;13.660;2023-08-06T05:17:55;13.07;;;9.63;;
53411;SDS011;39307;52.870;13.660;2023-08-06T05:20:28;11.73;;;9.15;;
53411;SDS011;39307;52.870;13.660;2023-08-06T05:23:05;12.30;;;9.38;;
53411;SDS011;39307;52.870;13.660;2023-08-06T05:25:38;12.52;;;9.45;;
53411;SDS011;39307;52.870;13.660;2023-08-06T05:28:10;12.23;;;9.57;;
53411;SDS011;39307;52.870;13.660;2023-08-06T05:30:43;11.35;;;8.82;;
53411;SDS011;39307;52.870;13.660;2023-08-06T05:33:16;12.20;;;9.60;;
53411;SDS011;39307;52.870;13.660;2023-08-06T05:35:49;11.85;;;9.52;;
53411;SDS011;39307;52.870;13.660;2023-08-06T05:38:19;12.95;;;9.75;;
53411;SDS011;39307;52.870;13.660;2023-08-06T05:40:45;14.33;;;9.57;;
53411;SDS011;39307;52.870;13.660;2023-08-06T05:43:11;13.70;;;9.68;;
53411;SDS011;39307;52.870;13.660;2023-08-06T05:45:38;13.55;;;10.63;;
53411;SDS011;39307;52.870;13.660;2023-08-06T05:48:04;13.00;;;10.10;;
53411;SDS011;39307;52.870;13.660;2023-08-06T05:50:30;13.02;;;10.60;;
53411;SDS011;39307;52.870;13.660;2023-08-06T05:52:57;14.30;;;10.55;;
53411;SDS011;39307;52.870;13.660;2023-08-06T05:55:23;11.10;;;9.45;;
53411;SDS011;39307;52.870;13.660;2023-08-06T05:57:49;12.65;;;9.40;;
53411;SDS011;39307;52.870;13.660;2023-08-06T06:00:15;12.43;;;9.77;;
53411;SDS011;39307;52.870;13.660;2023-08-06T06:02:41;12.50;;;9.93;;
53411;SDS011;39307;52.870;13.660;2023-08-06T06:05:07;13.07;;;9.40;;
53411;SDS011;39307;52.870;13.660;2023-08-06T06:07:34;14.65;;;10.88;;
53411;SDS011;39307;52.870;13.660;2023-08-06T06:10:00;12.95;;;9.95;;
53411;SDS011;39307;52.870;13.660;2023-08-06T06:12:26;12.68;;;9.98;;
53411;SDS011;39307;52.870;13.660;2023-08-06T06:14:52;13.37;;;9.70;;
53411;SDS011;39307;52.870;13.660;2023-08-06T06:17:19;12.23;;;9.50;;
53411;SDS011;39307;52.870;13.660;2023-08-06T06:19:45;21.47;;;14.77;;
53411;SDS011;39307;52.870;13.660;2023-08-06T06:22:11;17.90;;;12.15;;
53411;SDS011;39307;52.870;13.660;2023-08-06T06:24:38;14.48;;;10.38;;
53411;SDS011;39307;52.870;13.660;2023-08-06T06:27:04;14.52;;;9.60;;
53411;SDS011;39307;52.870;13.660;2023-08-06T06:29:30;13.57;;;10.50;;
53411;SDS011;39307;52.870;13.660;2023-08-06T06:31:57;12.38;;;9.85;;
53411;SDS011;39307;52.870;13.660;2023-08-06T06:34:23;15.23;;;10.27;;
53411;SDS011;39307;52.870;13.660;2023-08-06T06:36:49;13.10;;;9.18;;
53411;SDS011;39307;52.870;13.660;2023-08-06T06:39:15;13.07;;;9.35;;
53411;SDS011;39307;52.870;13.660;2023-08-06T06:41:43;11.50;;;9.10;;
53411;SDS011;39307;52.870;13.660;2023-08-06T06:44:09;11.35;;;8.52;;
53411;SDS011;39307;52.870;13.660;2023-08-06T06:46:35;12.17;;;9.10;;
53411;SDS011;39307;52.870;13.660;2023-08-06T06:49:02;11.37;;;9.00;;
53411;SDS011;39307;52.870;13.660;2023-08-06T06:51:28;12.10;;;8.50;;
53411;SDS011;39307;52.870;13.660;2023-08-06T06:53:54;11.73;;;8.67;;
53411;SDS011;39307;52.870;13.660;2023-08-06T06:56:20;11.53;;;8.30;;
53411;SDS011;39307;52.870;13.660;2023-08-06T06:58:47;11.10;;;8.18;;
53411;SDS011;39307;52.870;13.660;2023-08-06T07:01:13;10.52;;;8.30;;
53411;SDS011;39307;52.870;13.660;2023-08-06T07:03:39;11.05;;;8.13;;
53411;SDS011;39307;52.870;13.660;2023-08-06T07:06:06;10.73;;;8.20;;
53411;SDS011;39307;52.870;13.660;2023-08-06T07:08:32;11.98;;;8.65;;
53411;SDS011;39307;52.870;13.660;2023-08-06T07:11:05;12.93;;;8.10;;
53411;SDS011;39307;52.870;13.660;2023-08-06T07:13:32;10.75;;;8.48;;
53411;SDS011;39307;52.870;13.660;2023-08-06T07:15:59;12.20;;;9.05;;
53411;SDS011;39307;52.870;13.660;2023-08-06T07:18:25;11.85;;;9.05;;
53411;SDS011;39307;52.870;13.660;2023-08-06T07:20:52;12.00;;;8.48;;
53411;SDS011;39307;52.870;13.660;2023-08-06T07:23:22;11.18;;;8.50;;
53411;SDS011;39307;52.870;13.660;2023-08-06T07:25:50;11.15;;;8.63;;
53411;SDS011;39307;52.870;13.660;2023-08-06T07:28:17;11.20;;;8.53;;
53411;SDS011;39307;52.870;13.660;2023-08-06T07:30:44;11.35;;;9.15;;
53411;SDS011;39307;52.870;13.660;2023-08-06T07:33:11;10.68;;;8.90;;
53411;SDS011;39307;52.870;13.660;2023-08-06T07:35:37;13.60;;;10.30;;
53411;SDS011;39307;52.870;13.660;2023-08-06T07:38:04;14.23;;;11.30;;
53411;SDS011;39307;52.870;13.660;2023-08-06T07:40:30;12.20;;;8.52;;
53411;SDS011;39307;52.870;13.660;2023-08-06T07:42:56;11.55;;;8.98;;
53411;SDS011;39307;52.870;13.660;2023-08-06T07:45:23;13.35;;;10.10;;
53411;SDS011;39307;52.870;13.660;2023-08-06T07:47:49;17.45;;;13.88;;
53411;SDS011;39307;52.870;13.660;2023-08-06T07:50:16;12.95;;;10.55;;
53411;SDS011;39307;52.870;13.660;2023-08-06T07:52:42;10.80;;;8.77;;
53411;SDS011;39307;52.870;13.660;2023-08-06T07:55:08;10.20;;;9.00;;
53411;SDS011;39307;52.870;13.660;2023-08-06T07:57:34;10.35;;;8.52;;
53411;SDS011;39307;52.870;13.660;2023-08-06T08:00:00;11.32;;;8.75;;
53411;SDS011;39307;52.870;13.660;2023-08-06T08:02:27;10.48;;;8.52;;
53411;SDS011;39307;52.870;13.660;2023-08-06T08:04:56;12.68;;;9.80;;
53411;SDS011;39307;52.870;13.660;2023-08-06T08:07:26;13.30;;;11.00;;
53411;SDS011;39307;52.870;13.660;2023-08-06T08:09:52;14.07;;;10.70;;
53411;SDS011;39307;52.870;13.660;2023-08-06T08:12:18;13.25;;;10.27;;
53411;SDS011;39307;52.870;13.660;2023-08-06T08:14:44;12.43;;;9.00;;
53411;SDS011;39307;52.870;13.660;2023-08-06T08:17:11;11.40;;;9.35;;
53411;SDS011;39307;52.870;13.660;2023-08-06T08:19:37;11.82;;;10.38;;
53411;SDS011;39307;52.870;13.660;2023-08-06T08:22:04;11.45;;;9.23;;
53411;SDS011;39307;52.870;13.660;2023-08-06T08:24:30;10.57;;;9.07;;
53411;SDS011;39307;52.870;13.660;2023-08-06T08:26:57;11.52;;;9.57;;
53411;SDS011;39307;52.870;13.660;2023-08-06T08:29:23;10.90;;;9.40;;
53411;SDS011;39307;52.870;13.660;2023-08-06T08:31:50;11.57;;;9.23;;
53411;SDS011;39307;52.870;13.660;2023-08-06T08:34:16;12.30;;;9.85;;
53411;SDS011;39307;52.870;13.660;2023-08-06T08:36:43;11.75;;;8.93;;
53411;SDS011;39307;52.870;13.660;2023-08-06T08:39:09;11.83;;;9.87;;
53411;SDS011;39307;52.870;13.660;2023-08-06T08:41:37;12.10;;;9.88;;
53411;SDS011;39307;52.870;13.660;2023-08-06T08:44:03;11.88;;;9.77;;
53411;SDS011;39307;52.870;13.660;2023-08-06T08:46:34;12.35;;;10.43;;
53411;SDS011;39307;52.870;13.660;2023-08-06T08:49:01;12.07;;;10.48;;
53411;SDS011;39307;52.870;13.660;2023-08-06T08:51:28;11.77;;;9.38;;
53411;SDS011;39307;52.870;13.660;2023-08-06T08:53:56;14.10;;;9.57;;
53411;SDS011;39307;52.870;13.660;2023-08-06T08:56:22;12.25;;;10.32;;
53411;SDS011;39307;52.870;13.660;2023-08-06T08:58:49;12.10;;;9.82;;
53411;SDS011;39307;52.870;13.660;2023-08-06T09:01:15;12.20;;;9.60;;
53411;SDS011;39307;52.870;13.660;2023-08-06T09:03:42;12.18;;;9.82;;
53411;SDS011;39307;52.870;13.660;2023-08-06T09:06:10;12.98;;;10.90;;
53411;SDS011;39307;52.870;13.660;2023-08-06T09:08:39;12.07;;;10.57;;
53411;SDS011;39307;52.870;13.660;2023-08-06T09:11:13;11.57;;;9.90;;
53411;SDS011;39307;52.870;13.660;2023-08-06T09:13:39;12.90;;;10.47;;
53411;SDS011;39307;52.870;13.660;2023-08-06T09:16:05;13.55;;;10.30;;
53411;SDS011;39307;52.870;13.660;2023-08-06T09:18:31;13.60;;;11.40;;
53411;SDS011;39307;52.870;13.660;2023-08-06T09:20:59;11.32;;;9.80;;
53411;SDS011;39307;52.870;13.660;2023-08-06T09:23:28;12.18;;;9.90;;
53411;SDS011;39307;52.870;13.660;2023-08-06T09:25:58;12.00;;;9.88;;
53411;SDS011;39307;52.870;13.660;2023-08-06T09:28:25;12.03;;;9.40;;
53411;SDS011;39307;52.870;13.660;2023-08-06T09:31:05;15.13;;;11.68;;
53411;SDS011;39307;52.870;13.660;2023-08-06T09:33:32;14.38;;;10.73;;
53411;SDS011;39307;52.870;13.660;2023-08-06T09:36:02;13.20;;;10.48;;
53411;SDS011;39307;52.870;13.660;2023-08-06T09:38:37;12.02;;;10.23;;
53411;SDS011;39307;52.870;13.660;2023-08-06T09:41:05;13.47;;;9.40;;
53411;SDS011;39307;52.870;13.660;2023-08-06T09:43:39;10.35;;;8.32;;
53411;SDS011;39307;52.870;13.660;2023-08-06T09:46:13;11.02;;;8.93;;
53411;SDS011;39307;52.870;13.660;2023-08-06T09:48:39;11.95;;;9.20;;
53411;SDS011;39307;52.870;13.660;2023-08-06T09:51:06;11.10;;;9.02;;
53411;SDS011;39307;52.870;13.660;2023-08-06T09:53:35;10.80;;;8.00;;
53411;SDS011;39307;52.870;13.660;2023-08-06T09:56:04;10.32;;;8.18;;
53411;SDS011;39307;52.870;13.660;2023-08-06T09:58:31;10.10;;;7.97;;
53411;SDS011;39307;52.870;13.660;2023-08-06T10:00:58;9.75;;;7.80;;
53411;SDS011;39307;52.870;13.660;2023-08-06T10:03:25;10.23;;;7.85;;
53411;SDS011;39307;52.870;13.660;2023-08-06T10:05:53;10.47;;;7.63;;
53411;SDS011;39307;52.870;13.660;2023-08-06T10:08:24;11.00;;;8.00;;
53411;SDS011;39307;52.870;13.660;2023-08-06T10:10:51;8.77;;;7.00;;
53411;SDS011;39307;52.870;13.660;2023-08-06T10:13:17;12.15;;;7.35;;
53411;SDS011;39307;52.870;13.660;2023-08-06T10:15:46;8.32;;;6.20;;
53411;SDS011;39307;52.870;13.660;2023-08-06T10:18:12;8.90;;;6.60;;
53411;SDS011;39307;52.870;13.660;2023-08-06T10:20:40;9.25;;;7.22;;
53411;SDS011;39307;52.870;13.660;2023-08-06T10:23:07;11.05;;;7.75;;
53411;SDS011;39307;52.870;13.660;2023-08-06T10:25:34;10.60;;;6.82;;
53411;SDS011;39307;52.870;13.660;2023-08-06T10:28:01;9.73;;;6.68;;
53411;SDS011;39307;52.870;13.660;2023-08-06T10:30:55;8.57;;;5.93;;
53411;SDS011;39307;52.870;13.660;2023-08-06T10:33:21;9.65;;;6.30;;
53411;SDS011;39307;52.870;13.660;2023-08-06T10:35:48;8.48;;;5.95;;
53411;SDS011;39307;52.870;13.660;2023-08-06T10:38:15;9.60;;;6.13;;
53411;SDS011;39307;52.870;13.660;2023-08-06T10:40:42;9.57;;;5.90;;
53411;SDS011;39307;52.870;13.660;2023-08-06T10:46:08;11.67;;;6.37;;
53411;SDS011;39307;52.870;13.660;2023-08-06T10:48:38;10.63;;;6.30;;
53411;SDS011;39307;52.870;13.660;2023-08-06T10:51:09;8.73;;;6.20;;
53411;SDS011;39307;52.870;13.660;2023-08-06T10:53:36;9.30;;;6.30;;
53411;SDS011;39307;52.870;13.660;2023-08-06T10:56:12;8.65;;;5.97;;
53411;SDS011;39307;52.870;13.660;2023-08-06T10:58:40;8.73;;;5.93;;
53411;SDS011;39307;52.870;13.660;2023-08-06T11:01:07;9.27;;;6.38;;
53411;SDS011;39307;52.870;13.660;2023-08-06T11:03:33;9.43;;;5.88;;
53411;SDS011;39307;52.870;13.660;2023-08-06T11:06:00;9.15;;;5.75;;
53411;SDS011;39307;52.870;13.660;2023-08-06T11:08:27;9.35;;;6.25;;
53411;SDS011;39307;52.870;13.660;2023-08-06T11:10:54;11.32;;;5.88;;
53411;SDS011;39307;52.870;13.660;2023-08-06T11:13:21;8.40;;;5.70;;
53411;SDS011;39307;52.870;13.660;2023-08-06T11:15:47;8.38;;;5.70;;
53411;SDS011;39307;52.870;13.660;2023-08-06T11:18:13;9.20;;;5.50;;
53411;SDS011;39307;52.870;13.660;2023-08-06T11:20:40;9.70;;;5.28;;
53411;SDS011;39307;52.870;13.660;2023-08-06T11:23:06;8.48;;;5.50;;
53411;SDS011;39307;52.870;13.660;2023-08-06T11:25:36;7.75;;;5.43;;
53411;SDS011;39307;52.870;13.660;2023-08-06T11:28:10;10.43;;;5.65;;
53411;SDS011;39307;52.870;13.660;2023-08-06T11:30:37;8.10;;;5.27;;
53411;SDS011;39307;52.870;13.660;2023-08-06T11:33:06;8.00;;;5.28;;
53411;SDS011;39307;52.870;13.660;2023-08-06T11:35:34;7.82;;;5.03;;
53411;SDS011;39307;52.870;13.660;2023-08-06T11:38:04;8.25;;;5.10;;
53411;SDS011;39307;52.870;13.660;2023-08-06T11:40:31;9.15;;;4.82;;
53411;SDS011;39307;52.870;13.660;2023-08-06T11:42:58;7.87;;;4.70;;
53411;SDS011;39307;52.870;13.660;2023-08-06T11:45:24;8.15;;;5.30;;
53411;SDS011;39307;52.870;13.660;2023-08-06T11:47:51;9.20;;;5.38;;
53411;SDS011;39307;52.870;13.660;2023-08-06T11:50:22;7.80;;;5.07;;
53411;SDS011;39307;52.870;13.660;2023-08-06T11:52:54;8.27;;;4.82;;
53411;SDS011;39307;52.870;13.660;2023-08-06T11:55:24;7.25;;;4.78;;
53411;SDS011;39307;52.870;13.660;2023-08-06T11:57:52;7.40;;;4.65;;
53411;SDS011;39307;52.870;13.660;2023-08-06T12:00:18;7.22;;;4.70;;
53411;SDS011;39307;52.870;13.660;2023-08-06T12:02:45;8.10;;;5.10;;
53411;SDS011;39307;52.870;13.660;2023-08-06T12:05:12;9.03;;;5.00;;
53411;SDS011;39307;52.870;13.660;2023-08-06T12:07:43;6.88;;;4.07;;
53411;SDS011;39307;52.870;13.660;2023-08-06T12:10:14;7.10;;;4.30;;
53411;SDS011;39307;52.870;13.660;2023-08-06T12:12:41;8.05;;;4.50;;
53411;SDS011;39307;52.870;13.660;2023-08-06T12:15:08;6.40;;;4.43;;
53411;SDS011;39307;52.870;13.660;2023-08-06T12:17:36;6.93;;;4.80;;
53411;SDS011;39307;52.870;13.660;2023-08-06T12:20:04;5.72;;;3.70;;
53411;SDS011;39307;52.870;13.660;2023-08-06T12:22:31;5.83;;;4.03;;
53411;SDS011;39307;52.870;13.660;2023-08-06T12:24:58;6.22;;;3.90;;
53411;SDS011;39307;52.870;13.660;2023-08-06T12:27:24;6.60;;;3.80;;
53411;SDS011;39307;52.870;13.660;2023-08-06T12:29:51;6.32;;;4.25;;
53411;SDS011;39307;52.870;13.660;2023-08-06T12:32:17;6.10;;;3.83;;
53411;SDS011;39307;52.870;13.660;2023-08-06T12:34:44;6.45;;;4.10;;
53411;SDS011;39307;52.870;13.660;2023-08-06T12:37:10;5.43;;;3.65;;
53411;SDS011;39307;52.870;13.660;2023-08-06T12:39:36;6.13;;;3.85;;
53411;SDS011;39307;52.870;13.660;2023-08-06T12:42:04;5.43;;;3.45;;
53411;SDS011;39307;52.870;13.660;2023-08-06T12:44:31;6.30;;;3.50;;
53411;SDS011;39307;52.870;13.660;2023-08-06T12:46:58;6.55;;;3.47;;
53411;SDS011;39307;52.870;13.660;2023-08-06T12:49:25;5.65;;;3.28;;
53411;SDS011;39307;52.870;13.660;2023-08-06T12:51:52;6.10;;;3.40;;
53411;SDS011;39307;52.870;13.660;2023-08-06T12:54:19;7.05;;;4.75;;
53411;SDS011;39307;52.870;13.660;2023-08-06T12:56:46;5.50;;;3.05;;
53411;SDS011;39307;52.870;13.660;2023-08-06T12:59:16;7.03;;;4.53;;
53411;SDS011;39307;52.870;13.660;2023-08-06T13:01:43;6.03;;;3.92;;
53411;SDS011;39307;52.870;13.660;2023-08-06T13:04:10;6.95;;;3.92;;
53411;SDS011;39307;52.870;13.660;2023-08-06T13:06:37;5.03;;;3.33;;
53411;SDS011;39307;52.870;13.660;2023-08-06T13:09:03;5.00;;;3.03;;
53411;SDS011;39307;52.870;13.660;2023-08-06T13:11:30;7.60;;;4.88;;
53411;SDS011;39307;52.870;13.660;2023-08-06T13:14:14;8.07;;;3.60;;
53411;SDS011;39307;52.870;13.660;2023-08-06T13:16:42;5.70;;;3.10;;
53411;SDS011;39307;52.870;13.660;2023-08-06T13:19:08;5.80;;;3.63;;
53411;SDS011;39307;52.870;13.660;2023-08-06T13:24:07;5.03;;;2.97;;
53411;SDS011;39307;52.870;13.660;2023-08-06T13:26:34;5.30;;;3.63;;
53411;SDS011;39307;52.870;13.660;2023-08-06T13:29:01;5.63;;;3.50;;
53411;SDS011;39307;52.870;13.660;2023-08-06T13:31:28;5.55;;;3.60;;
53411;SDS011;39307;52.870;13.660;2023-08-06T13:33:54;5.90;;;3.88;;
53411;SDS011;39307;52.870;13.660;2023-08-06T13:36:21;6.25;;;3.90;;
53411;SDS011;39307;52.870;13.660;2023-08-06T13:38:47;6.82;;;3.60;;
53411;SDS011;39307;52.870;13.660;2023-08-06T13:41:14;7.43;;;5.13;;
53411;SDS011;39307;52.870;13.660;2023-08-06T13:43:41;6.70;;;4.90;;
53411;SDS011;39307;52.870;13.660;2023-08-06T13:46:07;9.15;;;4.80;;
53411;SDS011;39307;52.870;13.660;2023-08-06T13:48:33;8.68;;;5.00;;
53411;SDS011;39307;52.870;13.660;2023-08-06T13:51:00;8.13;;;4.75;;
53411;SDS011;39307;52.870;13.660;2023-08-06T13:53:28;6.75;;;4.50;;
53411;SDS011;39307;52.870;13.660;2023-08-06T13:55:56;7.63;;;5.50;;
53411;SDS011;39307;52.870;13.660;2023-08-06T13:58:22;7.93;;;4.43;;
53411;SDS011;39307;52.870;13.660;2023-08-06T14:00:49;7.07;;;4.33;;
53411;SDS011;39307;52.870;13.660;2023-08-06T14:03:15;7.00;;;5.00;;
53411;SDS011;39307;52.870;13.660;2023-08-06T14:05:42;7.20;;;4.97;;
53411;SDS011;39307;52.870;13.660;2023-08-06T14:08:08;7.73;;;5.27;;
53411;SDS011;39307;52.870;13.660;2023-08-06T14:10:34;8.05;;;4.57;;
53411;SDS011;39307;52.870;13.660;2023-08-06T14:13:01;6.07;;;3.38;;
53411;SDS011;39307;52.870;13.660;2023-08-06T14:15:27;5.85;;;2.60;;
53411;SDS011;39307;52.870;13.660;2023-08-06T14:17:53;6.80;;;2.80;;
53411;SDS011;39307;52.870;13.660;2023-08-06T14:20:19;4.88;;;2.63;;
53411;SDS011;39307;52.870;13.660;2023-08-06T14:22:45;7.32;;;2.85;;
53411;SDS011;39307;52.870;13.660;2023-08-06T14:25:12;6.45;;;2.78;;
53411;SDS011;39307;52.870;13.660;2023-08-06T14:27:38;5.65;;;2.85;;
53411;SDS011;39307;52.870;13.660;2023-08-06T14:30:05;6.22;;;3.15;;
53411;SDS011;39307;52.870;13.660;2023-08-06T14:32:32;7.82;;;4.95;;
53411;SDS011;39307;52.870;13.660;2023-08-06T14:34:59;13.20;;;9.63;;
53411;SDS011;39307;52.870;13.660;2023-08-06T14:37:25;24.83;;;17.25;;